createdAt,value
2018-08-20T00:00:25.078Z,15.33
2018-08-20T00:02:54.771Z,14.83
2018-08-20T00:05:26.318Z,10.77
2018-08-20T00:07:58.140Z,16.23
2018-08-20T00:10:28.642Z,11.90
2018-08-20T00:13:30.990Z,15.53
2018-08-20T00:15:59.762Z,18.60
2018-08-20T00:18:34.659Z,16.67
2018-08-20T00:21:12.822Z,16.40
2018-08-20T00:23:41.680Z,19.87
2018-08-20T00:26:10.397Z,17.20
2018-08-20T00:28:39.018Z,19.03
2018-08-20T00:31:07.889Z,16.33
2018-08-20T00:33:36.630Z,19.40
2018-08-20T00:36:05.354Z,12.80
2018-08-20T00:38:34.041Z,12.67
2018-08-20T00:41:02.821Z,17.50
2018-08-20T00:43:31.464Z,12.80
2018-08-20T00:46:00.178Z,22.53
2018-08-20T00:48:28.804Z,12.70
2018-08-20T00:50:57.445Z,14.03
2018-08-20T00:53:26.234Z,13.53
2018-08-20T00:55:54.972Z,13.13
2018-08-20T00:58:23.719Z,16.30
2018-08-20T01:00:52.451Z,16.63
2018-08-20T01:03:21.523Z,15.30
2018-08-20T01:05:50.421Z,16.10
2018-08-20T01:08:19.100Z,12.17
2018-08-20T01:10:47.833Z,12.70
2018-08-20T01:13:16.655Z,13.70
2018-08-20T01:15:45.435Z,15.90
2018-08-20T01:18:14.186Z,11.30
2018-08-20T01:20:42.823Z,17.93
2018-08-20T01:23:11.610Z,11.20
2018-08-20T01:25:40.235Z,12.33
2018-08-20T01:28:08.978Z,13.10
2018-08-20T01:30:37.845Z,12.10
2018-08-20T01:33:11.793Z,12.47
2018-08-20T01:35:40.495Z,12.40
2018-08-20T01:38:09.103Z,20.10
2018-08-20T01:40:37.787Z,14.47
2018-08-20T01:43:06.553Z,13.03
2018-08-20T01:45:35.256Z,16.93
2018-08-20T01:48:03.997Z,13.50
2018-08-20T01:50:32.762Z,16.43
2018-08-20T01:53:01.544Z,15.50
2018-08-20T01:55:30.292Z,13.40
2018-08-20T01:57:59.038Z,15.70
2018-08-20T02:00:27.844Z,17.40
2018-08-20T02:03:00.759Z,21.53
2018-08-20T02:05:29.861Z,14.77
2018-08-20T02:07:58.852Z,15.40
2018-08-20T02:10:27.693Z,17.23
2018-08-20T02:12:56.348Z,20.43
2018-08-20T02:15:25.208Z,17.50
2018-08-20T02:17:54.237Z,18.37
2018-08-20T02:20:22.858Z,21.00
2018-08-20T02:22:51.617Z,15.83
2018-08-20T02:25:20.439Z,16.67
2018-08-20T02:27:49.229Z,14.73
2018-08-20T02:30:17.941Z,12.80
2018-08-20T02:32:46.708Z,15.07
2018-08-20T02:35:15.629Z,17.90
2018-08-20T02:37:46.089Z,17.30
2018-08-20T02:40:16.893Z,15.57
2018-08-20T02:42:45.710Z,18.83
2018-08-20T02:45:16.592Z,16.57
2018-08-20T02:47:45.809Z,14.50
2018-08-20T02:50:15.190Z,23.63
2018-08-20T02:52:44.747Z,19.30
2018-08-20T02:55:13.903Z,17.93
2018-08-20T02:57:42.645Z,19.83
2018-08-20T03:00:15.645Z,18.20
2018-08-20T03:02:44.375Z,19.07
2018-08-20T03:05:13.589Z,18.90
2018-08-20T03:07:42.500Z,15.37
2018-08-20T03:10:13.920Z,23.43
2018-08-20T03:12:42.781Z,23.57
2018-08-20T03:15:11.931Z,22.90
2018-08-20T03:17:40.680Z,15.67
2018-08-20T03:20:09.393Z,20.13
2018-08-20T03:22:38.268Z,18.03
2018-08-20T03:25:07.801Z,47.87
2018-08-20T03:27:36.664Z,28.13
2018-08-20T03:30:07.006Z,16.50
2018-08-20T03:32:36.110Z,15.60
2018-08-20T03:35:06.616Z,20.83
2018-08-20T03:37:35.491Z,20.00
2018-08-20T03:40:04.908Z,21.10
2018-08-20T03:42:33.799Z,20.10
2018-08-20T03:45:02.615Z,13.83
2018-08-20T03:47:31.384Z,19.63
2018-08-20T03:50:00.157Z,13.57
2018-08-20T03:52:29.051Z,18.07
2018-08-20T03:54:57.717Z,17.60
2018-08-20T03:57:26.426Z,18.03
2018-08-20T03:59:54.991Z,18.40
2018-08-20T04:02:23.735Z,19.50
2018-08-20T04:04:52.490Z,16.30
2018-08-20T04:07:21.250Z,16.30
2018-08-20T04:09:49.945Z,19.33
2018-08-20T04:12:18.825Z,25.67
2018-08-20T04:14:47.635Z,18.03
2018-08-20T04:17:16.435Z,14.67
2018-08-20T04:19:45.214Z,16.97
2018-08-20T04:22:13.928Z,21.97
2018-08-20T04:24:42.653Z,15.47
2018-08-20T04:27:11.375Z,26.43
2018-08-20T04:29:40.175Z,16.47
2018-08-20T04:32:08.927Z,24.07
2018-08-20T04:34:37.507Z,20.90
2018-08-20T04:37:06.231Z,21.83
2018-08-20T04:39:35.871Z,26.27
2018-08-20T04:42:04.675Z,22.10
2018-08-20T04:44:33.288Z,21.80
2018-08-20T04:47:02.017Z,27.20
2018-08-20T04:49:30.992Z,20.60
2018-08-20T04:51:59.854Z,20.00
2018-08-20T04:54:28.489Z,21.23
2018-08-20T04:56:57.303Z,17.97
2018-08-20T04:59:25.976Z,16.20
2018-08-20T05:01:54.826Z,21.67
2018-08-20T05:04:23.746Z,26.97
2018-08-20T05:06:52.479Z,21.93
2018-08-20T05:09:21.227Z,17.50
2018-08-20T05:11:50.088Z,21.13
2018-08-20T05:14:18.775Z,25.10
2018-08-20T05:16:47.614Z,22.03
2018-08-20T05:19:16.503Z,22.67
2018-08-20T05:21:45.217Z,23.40
2018-08-20T05:24:15.323Z,21.03
2018-08-20T05:26:44.374Z,22.77
2018-08-20T05:29:13.120Z,22.43
2018-08-20T05:31:42.294Z,19.93
2018-08-20T05:34:10.856Z,18.67
2018-08-20T05:36:39.494Z,22.60
2018-08-20T05:39:12.705Z,23.13
2018-08-20T05:41:41.348Z,21.73
2018-08-20T05:44:10.067Z,19.77
2018-08-20T05:46:39.092Z,21.30
2018-08-20T05:49:07.783Z,19.80
2018-08-20T05:51:36.396Z,24.63
2018-08-20T05:54:05.076Z,24.67
2018-08-20T05:56:33.777Z,15.20
2018-08-20T05:59:02.486Z,24.00
2018-08-20T06:01:31.236Z,25.33
2018-08-20T06:04:00.060Z,31.03
2018-08-20T06:06:28.755Z,27.63
2018-08-20T06:08:57.452Z,22.93
2018-08-20T06:11:26.194Z,21.43
2018-08-20T06:13:55.049Z,26.60
2018-08-20T06:16:23.861Z,28.70
2018-08-20T06:18:52.605Z,26.63
2018-08-20T06:21:21.362Z,29.50
2018-08-20T06:23:50.192Z,23.17
2018-08-20T06:26:18.978Z,19.97
2018-08-20T06:28:47.684Z,22.00
2018-08-20T06:31:16.409Z,25.07
2018-08-20T06:33:45.069Z,24.30
2018-08-20T06:36:13.699Z,24.23
2018-08-20T06:38:42.415Z,25.20
2018-08-20T06:41:11.235Z,23.70
2018-08-20T06:43:39.907Z,25.60
2018-08-20T06:46:08.533Z,24.10
2018-08-20T06:48:37.182Z,23.03
2018-08-20T06:51:05.923Z,25.57
2018-08-20T06:53:34.620Z,27.97
2018-08-20T06:56:03.370Z,25.03
2018-08-20T06:58:32.095Z,27.23
2018-08-20T07:01:00.853Z,33.57
2018-08-20T07:03:29.641Z,27.20
2018-08-20T07:05:58.429Z,28.33
2018-08-20T07:08:27.177Z,37.47
2018-08-20T07:10:55.888Z,28.50
2018-08-20T07:13:27.535Z,33.63
2018-08-20T07:15:56.356Z,31.17
2018-08-20T07:18:25.198Z,33.30
2018-08-20T07:20:54.456Z,32.80
2018-08-20T07:23:23.436Z,27.70
2018-08-20T07:25:53.027Z,33.40
2018-08-20T07:28:21.801Z,31.50
2018-08-20T07:30:50.525Z,29.70
2018-08-20T07:33:19.192Z,30.73
2018-08-20T07:35:47.985Z,30.13
2018-08-20T07:38:16.807Z,31.37
2018-08-20T07:40:45.568Z,34.23
2018-08-20T07:43:14.449Z,32.80
2018-08-20T07:45:43.140Z,28.73
2018-08-20T07:48:11.814Z,30.63
2018-08-20T07:50:40.635Z,32.37
2018-08-20T07:53:09.387Z,26.10
2018-08-20T07:55:38.272Z,31.60
2018-08-20T07:58:07.450Z,34.37
2018-08-20T08:00:42.995Z,29.43
2018-08-20T08:03:11.780Z,30.47
2018-08-20T08:05:40.533Z,27.33
2018-08-20T08:08:09.260Z,36.20
2018-08-20T08:10:37.981Z,26.50
2018-08-20T08:13:06.792Z,31.40
2018-08-20T08:15:35.782Z,32.67
2018-08-20T08:18:04.737Z,35.40
2018-08-20T08:20:33.443Z,46.20
2018-08-20T08:23:02.281Z,28.93
2018-08-20T08:25:31.156Z,32.67
2018-08-20T08:27:59.996Z,56.93
2018-08-20T08:30:28.748Z,32.23
2018-08-20T08:32:57.512Z,30.20
2018-08-20T08:35:29.282Z,42.60
2018-08-20T08:37:58.106Z,36.43
2018-08-20T08:40:26.871Z,35.37
2018-08-20T08:42:55.561Z,31.33
2018-08-20T08:45:24.328Z,31.50
2018-08-20T08:47:52.958Z,26.77
2018-08-20T08:50:21.621Z,25.40
2018-08-20T08:52:50.385Z,28.47
2018-08-20T08:55:19.163Z,37.30
2018-08-20T08:57:47.831Z,54.43
2018-08-20T09:00:18.510Z,25.63
2018-08-20T09:02:47.631Z,38.37
2018-08-20T09:05:16.597Z,28.73
2018-08-20T09:07:45.289Z,30.90
2018-08-20T09:10:14.452Z,23.23
2018-08-20T09:12:43.275Z,26.27
2018-08-20T09:15:15.422Z,27.67
2018-08-20T09:17:44.467Z,23.57
2018-08-20T09:20:16.706Z,49.47
2018-08-20T09:22:45.458Z,29.10
2018-08-20T09:25:14.962Z,28.40
2018-08-20T09:27:46.965Z,29.97
2018-08-20T09:30:23.950Z,34.20
2018-08-20T09:32:52.633Z,26.77
2018-08-20T09:35:22.080Z,22.80
2018-08-20T09:37:50.801Z,29.70
2018-08-20T09:40:19.591Z,29.90
2018-08-20T09:42:48.361Z,27.80
2018-08-20T09:45:17.119Z,20.13
2018-08-20T09:47:45.735Z,25.90
2018-08-20T09:50:16.110Z,25.30
2018-08-20T09:52:45.401Z,26.50
2018-08-20T09:55:14.235Z,19.90
2018-08-20T09:57:42.988Z,24.90
2018-08-20T10:00:16.105Z,23.97
2018-08-20T10:02:44.947Z,23.83
2018-08-20T10:05:13.696Z,28.33
2018-08-20T10:07:42.431Z,24.67
2018-08-20T10:10:11.440Z,25.00
2018-08-20T10:12:40.120Z,23.17
2018-08-20T10:15:09.461Z,23.97
2018-08-20T10:17:38.376Z,38.33
2018-08-20T10:20:09.213Z,21.87
2018-08-20T10:22:38.178Z,26.63
2018-08-20T10:25:07.095Z,25.67
2018-08-20T10:27:35.913Z,29.73
2018-08-20T10:30:05.287Z,24.77
2018-08-20T10:32:34.755Z,31.33
2018-08-20T10:35:03.856Z,27.63
2018-08-20T10:37:32.764Z,34.03
2018-08-20T10:40:01.687Z,30.70
2018-08-20T10:42:30.652Z,30.30
2018-08-20T10:45:05.322Z,26.60
2018-08-20T10:47:34.001Z,32.37
2018-08-20T10:50:02.839Z,35.60
2018-08-20T10:52:31.450Z,32.13
2018-08-20T10:55:00.207Z,29.63
2018-08-20T10:57:29.359Z,32.27
2018-08-20T10:59:58.239Z,23.80
2018-08-20T11:02:26.870Z,20.17
2018-08-20T11:04:55.778Z,17.60
2018-08-20T11:07:24.942Z,23.60
2018-08-20T11:09:53.665Z,27.03
2018-08-20T11:12:22.449Z,23.57
2018-08-20T11:14:51.087Z,20.03
2018-08-20T11:17:19.836Z,19.30
2018-08-20T11:19:48.813Z,29.40
2018-08-20T11:22:17.733Z,19.53
2018-08-20T11:24:46.518Z,13.80
2018-08-20T11:27:15.310Z,20.17
2018-08-20T11:29:44.025Z,21.07
2018-08-20T11:32:14.004Z,16.00
2018-08-20T11:34:42.689Z,19.00
2018-08-20T11:37:11.479Z,16.47
2018-08-20T11:39:40.419Z,14.03
2018-08-20T11:42:09.158Z,11.50
2018-08-20T11:44:37.822Z,10.77
2018-08-20T11:47:06.528Z,12.33
2018-08-20T11:49:35.240Z,8.60
2018-08-20T11:52:04.055Z,5.33
2018-08-20T11:54:32.703Z,4.17
2018-08-20T11:57:01.370Z,5.97
2018-08-20T11:59:30.028Z,5.13
2018-08-20T12:01:58.808Z,7.20
2018-08-20T12:04:27.617Z,3.60
2018-08-20T12:06:56.658Z,6.20
2018-08-20T12:09:25.342Z,6.23
2018-08-20T12:11:54.104Z,7.63
2018-08-20T12:14:23.817Z,4.70
2018-08-20T12:16:52.855Z,6.27
2018-08-20T12:19:22.272Z,5.93
2018-08-20T12:21:51.023Z,4.17
2018-08-20T12:24:20.471Z,7.43
2018-08-20T12:26:49.298Z,7.73
2018-08-20T12:29:18.666Z,6.80
2018-08-20T12:31:47.277Z,8.20
2018-08-20T12:34:16.004Z,8.30
2018-08-20T12:36:44.728Z,8.07
2018-08-20T12:39:13.488Z,8.90
2018-08-20T12:41:42.455Z,7.60
2018-08-20T12:44:11.342Z,8.40
2018-08-20T12:46:40.017Z,14.13
2018-08-20T12:49:08.760Z,8.70
2018-08-20T12:51:37.531Z,8.53
2018-08-20T12:54:06.452Z,6.97
2018-08-20T12:56:35.493Z,8.83
2018-08-20T12:59:04.361Z,8.43
2018-08-20T13:01:33.257Z,7.23
2018-08-20T13:04:02.043Z,7.90
2018-08-20T13:06:30.707Z,4.20
2018-08-20T13:08:59.466Z,8.37
2018-08-20T13:11:28.367Z,8.97
2018-08-20T13:13:57.155Z,9.70
2018-08-20T13:16:25.986Z,7.83
2018-08-20T13:18:54.712Z,8.43
2018-08-20T13:21:23.440Z,8.47
2018-08-20T13:23:52.200Z,7.10
2018-08-20T13:26:20.958Z,9.53
2018-08-20T13:28:49.713Z,10.13
2018-08-20T13:31:18.434Z,10.40
2018-08-20T13:33:47.365Z,7.30
2018-08-20T13:36:16.141Z,7.10
2018-08-20T13:38:45.093Z,7.03
2018-08-20T13:41:13.704Z,7.50
2018-08-20T13:43:42.436Z,8.07
2018-08-20T13:46:11.126Z,8.60
2018-08-20T13:48:39.921Z,5.57
2018-08-20T13:51:08.641Z,6.17
2018-08-20T13:53:38.797Z,6.23
2018-08-20T13:56:07.829Z,6.10
2018-08-20T13:58:36.663Z,6.80
2018-08-20T14:01:05.444Z,10.50
2018-08-20T14:03:34.167Z,8.93
2018-08-20T14:06:02.853Z,14.27
2018-08-20T14:08:31.690Z,9.83
2018-08-20T14:11:00.406Z,10.70
2018-08-20T14:13:29.024Z,11.57
2018-08-20T14:15:57.710Z,6.50
2018-08-20T14:18:26.719Z,5.50
2018-08-20T14:21:15.378Z,4.03
2018-08-20T14:23:46.463Z,4.10
2018-08-20T14:26:15.100Z,7.23
2018-08-20T14:28:44.087Z,1.53
2018-08-20T14:31:12.852Z,1.30
2018-08-20T14:33:41.726Z,6.20
2018-08-20T14:36:10.820Z,4.80
2018-08-20T14:38:40.579Z,1.87
2018-08-20T14:41:09.267Z,3.63
2018-08-20T14:43:37.943Z,2.67
2018-08-20T14:46:11.971Z,2.00
2018-08-20T14:48:40.707Z,2.40
2018-08-20T14:51:09.505Z,2.07
2018-08-20T14:53:38.210Z,2.27
2018-08-20T14:56:06.927Z,5.13
2018-08-20T14:58:35.646Z,2.30
2018-08-20T15:01:04.370Z,1.83
2018-08-20T15:03:33.025Z,1.30
2018-08-20T15:06:01.789Z,1.80
2018-08-20T15:08:30.758Z,2.20
2018-08-20T15:10:59.504Z,2.07
2018-08-20T15:13:28.216Z,2.03
2018-08-20T15:15:56.998Z,1.47
2018-08-20T15:18:25.710Z,2.90
2018-08-20T15:20:54.323Z,2.50
2018-08-20T15:23:23.260Z,1.77
2018-08-20T15:25:52.100Z,1.20
2018-08-20T15:28:20.736Z,1.00
2018-08-20T15:30:49.421Z,1.53
2018-08-20T15:33:18.128Z,2.60
2018-08-20T15:35:48.454Z,1.93
2018-08-20T15:38:17.075Z,2.70
2018-08-20T15:40:46.001Z,2.10
2018-08-20T15:43:14.818Z,1.70
2018-08-20T15:45:43.473Z,1.40
2018-08-20T15:48:12.341Z,2.87
2018-08-20T15:50:41.083Z,5.43
2018-08-20T15:53:09.755Z,1.50
2018-08-20T15:55:38.745Z,0.73
2018-08-20T15:58:07.834Z,2.40
2018-08-20T16:00:36.596Z,1.03
2018-08-20T16:03:05.266Z,2.00
2018-08-20T16:05:33.899Z,0.80
2018-08-20T16:08:02.671Z,2.00
2018-08-20T16:10:31.369Z,2.47
2018-08-20T16:13:00.036Z,1.00
2018-08-20T16:15:28.647Z,1.30
2018-08-20T16:17:57.428Z,2.03
2018-08-20T16:20:26.176Z,2.07
2018-08-20T16:22:54.875Z,4.60
2018-08-20T16:25:23.680Z,1.23
2018-08-20T16:27:52.482Z,1.50
2018-08-20T16:30:21.313Z,0.80
2018-08-20T16:32:50.017Z,4.47
2018-08-20T16:35:18.805Z,9.60
2018-08-20T16:37:48.285Z,1.53
2018-08-20T16:40:17.015Z,0.90
2018-08-20T16:42:46.426Z,1.00
2018-08-20T16:45:15.212Z,2.10
2018-08-20T16:47:48.013Z,1.37
2018-08-20T16:50:16.695Z,2.03
2018-08-20T16:52:45.538Z,3.90
2018-08-20T16:55:14.403Z,1.23
2018-08-20T16:57:43.508Z,1.43
2018-08-20T17:00:13.093Z,0.80
2018-08-20T17:02:44.691Z,1.00
2018-08-20T17:05:14.436Z,0.93
2018-08-20T17:10:23.917Z,2.40
2018-08-20T17:12:53.342Z,3.63
2018-08-20T17:15:22.507Z,1.80
2018-08-20T17:17:51.447Z,1.53
2018-08-20T17:20:20.135Z,1.43
2018-08-20T17:22:49.333Z,1.60
2018-08-20T17:25:18.067Z,2.40
2018-08-20T17:27:52.473Z,5.20
2018-08-20T17:30:22.718Z,0.87
2018-08-20T17:32:51.807Z,1.20
2018-08-20T17:35:20.661Z,2.57
2018-08-20T17:37:50.270Z,1.47
2018-08-20T17:40:31.121Z,0.90
2018-08-20T17:42:59.757Z,4.13
2018-08-20T17:45:28.545Z,1.20
2018-08-20T17:47:57.210Z,2.50
2018-08-20T17:50:36.736Z,0.87
2018-08-20T17:53:05.427Z,1.00
2018-08-20T17:55:34.330Z,2.80
2018-08-20T17:58:09.627Z,0.73
2018-08-20T18:00:53.923Z,2.30
2018-08-20T18:03:29.935Z,1.07
2018-08-20T18:06:06.297Z,1.50
2018-08-20T18:08:35.478Z,1.00
2018-08-20T18:11:06.258Z,2.03
2018-08-20T18:13:55.559Z,4.10
2018-08-20T18:16:26.111Z,1.60
2018-08-20T18:18:57.619Z,1.40
2018-08-20T18:21:26.255Z,1.60
2018-08-20T18:23:58.329Z,2.30
2018-08-20T18:26:33.201Z,1.03
2018-08-20T18:29:01.954Z,1.17
2018-08-20T18:31:33.671Z,0.90
2018-08-20T18:34:02.800Z,0.60
2018-08-20T18:36:31.593Z,1.27
2018-08-20T18:39:09.518Z,0.70
2018-08-20T18:42:14.603Z,1.83
2018-08-20T18:44:43.424Z,3.93
2018-08-20T18:47:15.502Z,1.97
2018-08-20T18:52:26.565Z,2.57
2018-08-20T18:54:59.849Z,5.50
2018-08-20T18:57:32.360Z,1.20
2018-08-20T19:00:07.970Z,1.43
2018-08-20T19:02:45.317Z,1.37
2018-08-20T19:05:22.887Z,2.00
2018-08-20T19:07:51.740Z,5.90
2018-08-20T19:10:25.727Z,2.70
2018-08-20T19:12:55.340Z,1.50
2018-08-20T19:15:37.466Z,1.73
2018-08-20T19:18:08.202Z,1.10
2018-08-20T19:20:36.912Z,4.70
2018-08-20T19:23:05.733Z,8.90
2018-08-20T19:25:35.281Z,2.20
2018-08-20T19:28:09.629Z,2.03
2018-08-20T19:30:38.445Z,1.70
2018-08-20T19:33:37.921Z,1.67
2018-08-20T19:36:06.608Z,2.93
2018-08-20T19:38:36.579Z,4.30
2018-08-20T19:41:10.687Z,2.33
2018-08-20T19:43:49.729Z,3.40
2018-08-20T19:46:25.040Z,3.47
2018-08-20T19:49:24.504Z,4.83
2018-08-20T19:51:56.927Z,1.93
2018-08-20T19:54:25.810Z,3.23
2018-08-20T19:56:55.745Z,2.03
2018-08-20T19:59:31.118Z,1.37
2018-08-20T20:02:05.738Z,1.47
2018-08-20T20:04:40.842Z,2.23
2018-08-20T20:07:13.002Z,1.80
2018-08-20T20:09:42.742Z,1.13
2018-08-20T20:12:11.484Z,1.37
2018-08-20T20:14:46.454Z,1.30
2018-08-20T20:17:21.867Z,1.80
2018-08-20T20:19:50.689Z,7.53
2018-08-20T20:22:21.441Z,0.80
2018-08-20T20:24:51.335Z,0.90
2018-08-20T20:27:23.487Z,1.33
2018-08-20T20:29:52.929Z,2.53
2018-08-20T20:32:21.762Z,1.20
2018-08-20T20:34:52.626Z,4.83
2018-08-20T20:37:23.528Z,4.40
2018-08-20T20:39:57.858Z,1.03
2018-08-20T20:42:26.647Z,0.80
2018-08-20T20:44:55.370Z,1.60
2018-08-20T20:47:24.075Z,2.03
2018-08-20T20:49:52.652Z,1.63
2018-08-20T20:52:23.277Z,2.70
2018-08-20T20:54:52.624Z,1.93
2018-08-20T20:57:24.408Z,1.57
2018-08-20T20:59:53.483Z,1.57
2018-08-20T21:02:27.571Z,2.20
2018-08-20T21:05:15.682Z,5.50
2018-08-20T21:07:44.423Z,1.23
2018-08-20T21:10:13.182Z,3.30
2018-08-20T21:12:43.458Z,2.00
2018-08-20T21:15:12.820Z,1.47
2018-08-20T21:17:42.624Z,1.40
2018-08-20T21:20:15.161Z,2.13
2018-08-20T21:22:45.064Z,1.23
2018-08-20T21:25:16.091Z,2.47
2018-08-20T21:27:46.648Z,3.77
2018-08-20T21:30:15.900Z,1.00
2018-08-20T21:32:44.515Z,1.40
2018-08-20T21:35:13.201Z,1.73
2018-08-20T21:37:42.506Z,1.90
2018-08-20T21:40:14.735Z,1.10
2018-08-20T21:42:43.450Z,2.23
2018-08-20T21:45:12.932Z,1.70
2018-08-20T21:47:41.594Z,2.20
2018-08-20T21:50:10.563Z,2.33
2018-08-20T21:52:39.213Z,1.40
2018-08-20T21:55:08.729Z,1.93
2018-08-20T21:57:41.273Z,2.60
2018-08-20T22:00:14.752Z,1.57
2018-08-20T22:02:52.351Z,3.13
2018-08-20T22:05:21.205Z,1.90
2018-08-20T22:07:50.301Z,1.53
2018-08-20T22:10:19.043Z,1.63
2018-08-20T22:12:47.704Z,1.73
2018-08-20T22:15:16.549Z,1.13
2018-08-20T22:17:45.196Z,5.87
2018-08-20T22:20:13.904Z,1.90
2018-08-20T22:22:42.753Z,3.13
2018-08-20T22:25:16.209Z,1.93
2018-08-20T22:27:50.136Z,1.97
2018-08-20T22:30:18.873Z,3.87
2018-08-20T22:32:47.482Z,2.77
2018-08-20T22:35:21.630Z,5.60
2018-08-20T22:37:51.755Z,3.57
2018-08-20T22:40:21.716Z,2.20
2018-08-20T22:42:55.264Z,4.13
2018-08-20T22:45:23.948Z,1.90
2018-08-20T22:47:52.955Z,2.93
2018-08-20T22:50:21.653Z,2.00
2018-08-20T22:52:51.433Z,3.00
2018-08-20T22:55:21.432Z,5.13
2018-08-20T22:58:01.124Z,3.67
2018-08-20T23:00:30.886Z,3.63
2018-08-20T23:02:59.629Z,5.87
2018-08-20T23:05:30.150Z,4.20
2018-08-20T23:08:00.375Z,2.50
2018-08-20T23:10:29.164Z,3.20
2018-08-20T23:12:57.846Z,2.60
2018-08-20T23:15:26.541Z,3.70
2018-08-20T23:17:55.276Z,2.63
2018-08-20T23:20:29.286Z,3.50
2018-08-20T23:22:57.996Z,2.27
2018-08-20T23:25:26.708Z,2.73
2018-08-20T23:27:55.418Z,2.63
2018-08-20T23:30:24.083Z,2.67
2018-08-20T23:32:52.728Z,2.37
2018-08-20T23:35:21.372Z,3.80
2018-08-20T23:37:50.065Z,4.53
2018-08-20T23:40:18.742Z,2.43
2018-08-20T23:42:47.322Z,3.37
2018-08-20T23:45:15.955Z,3.10
2018-08-20T23:47:44.571Z,3.13
2018-08-20T23:50:13.231Z,4.90
2018-08-20T23:52:42.315Z,2.63
2018-08-20T23:55:11.070Z,3.10
2018-08-20T23:57:39.745Z,5.00
